Reliance — WDD7436 — position and weather

sailwx.info

Track history (hours):
 
Tides and Currents Weather Stations Pressure Air Temp Water Temp Dewpoint Dewpoint Depression Visibility Wind Speed Wind Dir Waves Ship Positions

Reliance

Owner: Providence Steamboat Co., Providence, RI. More information available from US FCC via Universal Licensing System and Coast Guard Vessel Documentation Center.

Last reported at 2017-Sep-25 08:15 UTC. Time now 2017-Sep-25 09:52 UTC.
Position N 41°40' W 071°19'.

Length 30 m; draft 4 m.

Type: Tug. MMSI: 367186380.

Date/timePositionNaut miles runAvg speedWind from/ knotsBaromVisibWave heightAir tempDewpointWater temp
2017-Sep-25 08:15N 41°40' W 071°19'2 9.7
2017-Sep-25 08:00N 41°42' W 071°20'5 9.4
2017-Sep-25 07:30N 41°46' W 071°22'1 0.5
2017-Sep-25 04:48N 41°47' W 071°23'1 1.0
2017-Sep-25 03:58N 41°47' W 071°22'0 0.7
2017-Sep-25 03:30N 41°47' W 071°22'0 0.0
2017-Sep-25 03:00N 41°47' W 071°22'0 0.0
2017-Sep-25 02:30N 41°47' W 071°22'0 0.0
2017-Sep-25 01:58N 41°47' W 071°22'0 0.0
2017-Sep-25 01:30N 41°47' W 071°22'1 1.3
2017-Sep-25 00:45N 41°48' W 071°23'0 0.0
2017-Sep-24 14:45N 41°48' W 071°23'0 0.2
2017-Sep-24 12:32N 41°47' W 071°23'0 2.7
2017-Sep-24 12:22N 41°47' W 071°23'2 0.3
2017-Sep-24 05:09N 41°49' W 071°24'0 0.0
2017-Sep-24 04:56N 41°49' W 071°24'0 0.0
2017-Sep-24 04:27N 41°49' W 071°24'0 0.0
2017-Sep-24 04:00N 41°49' W 071°24'  
2017-Sep-21 17:47N 41°47' W 071°22'0 1.2
2017-Sep-21 17:28N 41°47' W 071°23'1 1.1
2017-Sep-21 16:25N 41°48' W 071°24'0 0.2
2017-Sep-21 16:00N 41°48' W 071°24'0 0.1
2017-Sep-21 13:54N 41°48' W 071°24'0 0.3
2017-Sep-21 13:30N 41°48' W 071°24'1 0.1
2017-Sep-21 02:34N 41°47' W 071°23'1 2.5
2017-Sep-21 02:19N 41°47' W 071°22'0 0.1
2017-Sep-21 01:58N 41°47' W 071°22'0 0.0
2017-Sep-19 13:13N 41°47' W 071°22'0 0.0
2017-Sep-19 12:57N 41°47' W 071°22'0 0.8
2017-Sep-19 12:27N 41°46' W 071°22'1 2.3
2017-Sep-19 12:00N 41°47' W 071°23'1 0.0
2017-Sep-18 16:14N 41°48' W 071°24'1 0.0
2017-Sep-16 23:29N 41°49' W 071°24'  
Track history (hours):
 
Tides and Currents Weather Stations Pressure Air Temp Water Temp Dewpoint Dewpoint Depression Visibility Wind Speed Wind Dir Waves Ship Positions

Reliance

Owner: Providence Steamboat Co., Providence, RI. More information available from US FCC via Universal Licensing System and Coast Guard Vessel Documentation Center.

Last reported at 2017-Sep-25 08:15 UTC. Time now 2017-Sep-25 09:52 UTC.
Position N 41°40' W 071°19'.

Length 30 m; draft 4 m.

Type: Tug. MMSI: 367186380.

Date/timePositionNaut miles runAvg speedWind from/ knotsBaromVisibWave heightAir tempDewpointWater temp
2017-Sep-25 08:15N 41°40' W 071°19'2 9.7
2017-Sep-25 08:00N 41°42' W 071°20'5 9.4
2017-Sep-25 07:30N 41°46' W 071°22'1 0.5
2017-Sep-25 04:48N 41°47' W 071°23'1 1.0
2017-Sep-25 03:58N 41°47' W 071°22'0 0.7
2017-Sep-25 03:30N 41°47' W 071°22'0 0.0
2017-Sep-25 03:00N 41°47' W 071°22'0 0.0
2017-Sep-25 02:30N 41°47' W 071°22'0 0.0
2017-Sep-25 01:58N 41°47' W 071°22'0 0.0
2017-Sep-25 01:30N 41°47' W 071°22'1 1.3
2017-Sep-25 00:45N 41°48' W 071°23'0 0.0
2017-Sep-24 14:45N 41°48' W 071°23'0 0.2
2017-Sep-24 12:32N 41°47' W 071°23'0 2.7
2017-Sep-24 12:22N 41°47' W 071°23'2 0.3
2017-Sep-24 05:09N 41°49' W 071°24'0 0.0
2017-Sep-24 04:56N 41°49' W 071°24'0 0.0
2017-Sep-24 04:27N 41°49' W 071°24'0 0.0
2017-Sep-24 04:00N 41°49' W 071°24'  
2017-Sep-21 17:47N 41°47' W 071°22'0 1.2
2017-Sep-21 17:28N 41°47' W 071°23'1 1.1
2017-Sep-21 16:25N 41°48' W 071°24'0 0.2
2017-Sep-21 16:00N 41°48' W 071°24'0 0.1
2017-Sep-21 13:54N 41°48' W 071°24'0 0.3
2017-Sep-21 13:30N 41°48' W 071°24'1 0.1
2017-Sep-21 02:34N 41°47' W 071°23'1 2.5
2017-Sep-21 02:19N 41°47' W 071°22'0 0.1
2017-Sep-21 01:58N 41°47' W 071°22'0 0.0
2017-Sep-19 13:13N 41°47' W 071°22'0 0.0
2017-Sep-19 12:57N 41°47' W 071°22'0 0.8
2017-Sep-19 12:27N 41°46' W 071°22'1 2.3
2017-Sep-19 12:00N 41°47' W 071°23'1 0.0
2017-Sep-18 16:14N 41°48' W 071°24'1 0.0
2017-Sep-16 23:29N 41°49' W 071°24'  

Dump ship's entire track history